Seattle, Washington
Traffic Map
Current Weather Conditions
Seattle, Washington
Clear
Clear
75°
Feels Like: 75°
Wind Chill: 75° Ceiling: Unl
Heat Index: 75° Visibility: 10mi
Dew Point: 53° Wind: 5mph
Humidity: 46% Direction: 320° (NW)
Pressure: 29.84in Gusts: 0mph
Raw Report DataKBFI 051653Z 32004KT 10SM CLR 24/12 A2984 RMK AO2 SLP104 T02390117
Traffic Incident Summary
Active as of:
Severity:
Category:
InformationThere was an issue retrieving the traffic information for this location. Please try a different location or try again shortly.
Advertisements
Track Severe Weather on mobile